Time;durP1;ratioP1;P1;durP2;ratioP2;P2;SDS_P1;SDS_P2;PMS_P1;PMS_P2;Temp;Humidity;BMP_temperature;BMP_pressure;BME280_temperature;BME280_humidity;BME280_pressure;Samples;Min_cycle;Max_cycle;Signal;HPM_P1;HPM_P2
2023/08/13 00:00:16;;;;;;;4.38;1.05;;;;;;;;;;5051505;28;20048;-76
2023/08/13 00:02:45;;;;;;;2.92;1.00;;;24.70;69.90;;;;;;5051813;28;20067;-76
2023/08/13 00:05:11;;;;;;;3.78;1.20;;;;;;;;;;5051899;28;20120;-75
2023/08/13 00:07:38;;;;;;;3.90;1.17;;;;;;;;;;5052064;28;20063;-75
2023/08/13 00:10:04;;;;;;;2.22;0.95;;;;;;;;;;5052442;28;20037;-75
2023/08/13 00:12:31;;;;;;;4.20;0.98;;;;;;;;;;5051642;28;20072;-75
2023/08/13 00:14:57;;;;;;;3.13;0.95;;;;;;;;;;5051797;28;20044;-75
2023/08/13 00:17:23;;;;;;;2.58;0.90;;;;;;;;;;5051736;28;20037;-75
2023/08/13 00:19:49;;;;;;;4.28;1.00;;;;;;;;;;5051756;28;20186;-75
2023/08/13 00:22:16;;;;;;;2.75;0.88;;;;;;;;;;5051857;28;20116;-75
2023/08/13 00:24:42;;;;;;;3.15;1.10;;;;;;;;;;5051678;28;20029;-75
2023/08/13 00:27:08;;;;;;;4.07;1.00;;;;;;;;;;5051658;28;20112;-75
2023/08/13 00:29:34;;;;;;;5.28;1.17;;;;;;;;;;5051635;28;20037;-75
2023/08/13 00:32:00;;;;;;;2.80;0.80;;;;;;;;;;5051920;28;20060;-75
2023/08/13 00:34:26;;;;;;;3.70;1.00;;;;;;;;;;5051607;28;20029;-75
2023/08/13 00:36:52;;;;;;;2.92;1.17;;;;;;;;;;5051571;28;20047;-75
2023/08/13 00:39:18;;;;;;;3.90;1.38;;;;;;;;;;5052262;28;20040;-76
2023/08/13 00:41:44;;;;;;;3.25;0.95;;;;;;;;;;5051783;28;20064;-75
2023/08/13 00:44:10;;;;;;;4.10;1.50;;;;;;;;;;5051641;28;20065;-75
2023/08/13 00:46:36;;;;;;;2.75;1.13;;;;;;;;;;5051455;28;20045;-75
2023/08/13 00:49:03;;;;;;;4.25;0.90;;;;;;;;;;5051449;28;20419;-75
2023/08/13 00:51:29;;;;;;;2.80;1.08;;;24.40;70.20;;;;;;5051480;28;20049;-75
2023/08/13 00:53:56;;;;;;;2.65;0.98;;;24.40;70.40;;;;;;5051468;28;20432;-75
2023/08/13 00:56:22;;;;;;;4.82;0.68;;;24.40;69.50;;;;;;5051275;28;20100;-75
2023/08/13 00:58:49;;;;;;;3.80;1.25;;;24.30;69.60;;;;;;5051226;28;20064;-75
2023/08/13 01:01:15;;;;;;;4.40;1.15;;;;;;;;;;5043071;28;20029;-75
2023/08/13 01:03:42;;;;;;;1.92;0.63;;;;;;;;;;5051242;28;20048;-75
2023/08/13 01:06:14;;;;;;;2.35;0.85;;;;;;;;;;5051547;28;20047;-75
2023/08/13 01:08:41;;;;;;;3.47;1.10;;;;;;;;;;5051564;28;20079;-75
2023/08/13 01:11:19;;;;;;;4.07;1.48;;;24.30;70.50;;;;;;5051785;28;20302;-75
2023/08/13 01:14:01;;;;;;;3.05;1.20;;;24.30;70.40;;;;;;5054908;28;20128;-75
2023/08/13 01:16:27;;;;;;;2.83;0.80;;;;;;;;;;5054875;28;20037;-75
2023/08/13 01:18:54;;;;;;;2.42;1.05;;;;;;;;;;5055279;28;20412;-76
2023/08/13 01:21:20;;;;;;;2.88;0.98;;;;;;;;;;5055285;28;20040;-76
2023/08/13 01:23:46;;;;;;;2.00;0.77;;;;;;;;;;5055145;28;20037;-75
2023/08/13 01:26:18;;;;;;;2.97;1.00;;;24.20;70.40;;;;;;5054676;28;20115;-75
2023/08/13 01:28:59;;;;;;;2.95;0.90;;;24.20;70.40;;;;;;5054796;28;20056;-75
2023/08/13 01:31:29;;;;;;;3.53;1.00;;;24.10;70.50;;;;;;5047838;28;20219;-75
2023/08/13 01:33:58;;;;;;;2.28;0.90;;;24.10;70.10;;;;;;5054586;28;20035;-75
2023/08/13 01:36:25;;;;;;;2.42;0.75;;;24.80;70.50;;;;;;5055378;28;20036;-75
2023/08/13 01:38:53;;;;;;;1.60;0.80;;;24.20;70.10;;;;;;5054637;28;20456;-75
2023/08/13 01:41:20;;;;;;;3.55;1.02;;;;;;;;;;5054666;28;20029;-76
2023/08/13 01:43:46;;;;;;;2.78;0.80;;;;;;;;;;5054730;28;20411;-75
2023/08/13 01:46:12;;;;;;;2.22;0.90;;;;;;;;;;5054453;28;20056;-75
2023/08/13 01:48:39;;;;;;;1.85;0.70;;;;;;;;;;5054521;28;20408;-75
2023/08/13 01:51:06;;;;;;;2.90;1.00;;;;;;;;;;5054270;28;20072;-75
2023/08/13 01:53:32;;;;;;;4.13;1.05;;;;;;;;;;5054303;28;20544;-75
2023/08/13 01:55:59;;;;;;;3.15;1.10;;;;;;;;;;5054146;28;20538;-75
2023/08/13 01:58:25;;;;;;;2.55;1.10;;;;;;;;;;5054245;28;20085;-75
2023/08/13 02:00:51;;;;;;;1.85;0.80;;;;;;;;;;5054151;28;20495;-75
2023/08/13 02:03:17;;;;;;;3.05;0.85;;;;;;;;;;5054442;28;20083;-75
2023/08/13 02:05:44;;;;;;;2.20;0.85;;;;;;;;;;5053908;28;20033;-75
2023/08/13 02:08:10;;;;;;;4.25;1.10;;;;;;;;;;5053896;28;20554;-75
2023/08/13 02:10:36;;;;;;;3.75;0.93;;;;;;;;;;5053838;28;20052;-75
2023/08/13 02:13:03;;;;;;;4.15;1.20;;;;;;;;;;5053674;28;20045;-75
2023/08/13 02:15:29;;;;;;;2.10;0.77;;;;;;;;;;5053990;28;20033;-75
2023/08/13 02:17:55;;;;;;;3.22;0.90;;;;;;;;;;5053772;28;20518;-75
2023/08/13 02:20:21;;;;;;;1.80;0.70;;;;;;;;;;5053829;28;20096;-76
2023/08/13 02:22:47;;;;;;;4.05;1.20;;;;;;;;;;5053409;28;20107;-75
2023/08/13 02:25:13;;;;;;;3.15;0.70;;;;;;;;;;5054223;28;20032;-75
2023/08/13 02:27:39;;;;;;;3.10;1.10;;;;;;;;;;5053888;28;20434;-75
2023/08/13 02:30:06;;;;;;;1.80;0.60;;;;;;;;;;5053471;28;20120;-75
2023/08/13 02:32:32;;;;;;;2.00;0.88;;;;;;;;;;5054063;28;20399;-76
2023/08/13 02:34:58;;;;;;;3.35;1.13;;;;;;;;;;5053686;28;20403;-74
2023/08/13 02:37:25;;;;;;;4.85;1.00;;;;;;;;;;5053344;28;20051;-74
2023/08/13 02:39:51;;;;;;;2.13;0.52;;;;;;;;;;5053661;28;20037;-74
2023/08/13 02:42:17;;;;;;;1.77;0.60;;;;;;;;;;5053601;28;20032;-74
2023/08/13 02:44:44;;;;;;;2.08;0.85;;;;;;;;;;5053512;28;20060;-74
2023/08/13 02:47:10;;;;;;;2.38;0.82;;;;;;;;;;5053464;28;20044;-75
2023/08/13 02:49:37;;;;;;;1.88;0.90;;;;;;;;;;5053375;28;20040;-74
2023/08/13 02:52:03;;;;;;;1.67;0.77;;;;;;;;;;5053157;28;20040;-74
2023/08/13 02:54:29;;;;;;;1.63;0.50;;;;;;;;;;5053081;28;20115;-74
2023/08/13 02:56:55;;;;;;;2.22;1.05;;;;;;;;;;5053058;28;20553;-74
2023/08/13 02:59:21;;;;;;;2.80;0.82;;;;;;;;;;5053001;28;20033;-74
2023/08/13 03:01:47;;;;;;;2.80;0.88;;;;;;;;;;5053359;28;20408;-74
2023/08/13 03:04:13;;;;;;;2.92;0.77;;;;;;;;;;5052926;28;20091;-74
2023/08/13 03:06:39;;;;;;;1.75;0.52;;;;;;;;;;5052831;28;20407;-74
2023/08/13 03:09:05;;;;;;;2.92;0.80;;;;;;;;;;5052762;28;20033;-74
2023/08/13 03:11:31;;;;;;;3.53;0.93;;;;;;;;;;5052570;28;20044;-74
2023/08/13 03:13:57;;;;;;;1.50;0.60;;;;;;;;;;5053109;28;20399;-74
2023/08/13 03:16:24;;;;;;;1.48;0.70;;;;;;;;;;5052672;28;20059;-74
2023/08/13 03:18:50;;;;;;;2.05;0.77;;;23.70;69.20;;;;;;5052612;28;20033;-74
2023/08/13 03:21:16;;;;;;;1.73;0.77;;;;;;;;;;5052625;28;20043;-74
2023/08/13 03:23:42;;;;;;;2.15;0.73;;;;;;;;;;5052586;28;20033;-75
2023/08/13 03:26:08;;;;;;;1.88;0.63;;;;;;;;;;5052796;28;20103;-74
2023/08/13 03:28:34;;;;;;;2.58;0.80;;;;;;;;;;5052761;28;20060;-74
2023/08/13 03:31:01;;;;;;;2.60;0.43;;;23.70;71.40;;;;;;5052790;28;20044;-74
2023/08/13 03:33:27;;;;;;;1.65;0.90;;;;;;;;;;5052254;28;20032;-74
2023/08/13 03:35:53;;;;;;;1.88;0.80;;;;;;;;;;5051953;28;20043;-74
2023/08/13 03:38:19;;;;;;;1.80;0.60;;;;;;;;;;5052203;28;20045;-74
2023/08/13 03:40:45;;;;;;;2.40;0.63;;;;;;;;;;5052263;28;20033;-74
2023/08/13 03:43:11;;;;;;;1.20;0.50;;;;;;;;;;5052196;28;20487;-74
2023/08/13 03:45:37;;;;;;;2.15;0.80;;;;;;;;;;5052148;28;20037;-74
2023/08/13 03:48:03;;;;;;;2.97;0.95;;;;;;;;;;5052039;28;20128;-74
2023/08/13 03:50:29;;;;;;;2.90;1.15;;;;;;;;;;5052008;28;20484;-74
2023/08/13 03:52:55;;;;;;;1.77;0.75;;;;;;;;;;5052032;28;20041;-74
2023/08/13 03:55:21;;;;;;;1.92;0.80;;;;;;;;;;5052054;28;20059;-74
2023/08/13 03:57:47;;;;;;;1.23;0.70;;;;;;;;;;5052568;28;20041;-74
2023/08/13 04:00:14;;;;;;;1.83;0.60;;;;;;;;;;5051962;28;20040;-74
2023/08/13 04:02:40;;;;;;;2.15;1.00;;;;;;;;;;5051823;28;20068;-74
2023/08/13 04:05:06;;;;;;;1.67;0.63;;;23.60;69.60;;;;;;5051951;28;20037;-74
2023/08/13 04:07:32;;;;;;;1.75;0.85;;;;;;;;;;5052159;28;20045;-74
2023/08/13 04:09:58;;;;;;;2.22;0.80;;;;;;;;;;5051630;28;20033;-72
2023/08/13 04:12:25;;;;;;;1.25;0.90;;;;;;;;;;5051776;28;20064;-72
2023/08/13 04:14:51;;;;;;;1.85;0.50;;;;;;;;;;5051650;28;20064;-72
2023/08/13 04:17:17;;;;;;;1.20;0.68;;;;;;;;;;5051766;28;20040;-72
2023/08/13 04:19:43;;;;;;;2.30;0.68;;;;;;;;;;5051702;28;20036;-72
2023/08/13 04:22:09;;;;;;;2.75;0.88;;;;;;;;;;5051749;28;20526;-72
2023/08/13 04:24:35;;;;;;;3.47;0.93;;;;;;;;;;5051733;28;20140;-72
2023/08/13 04:27:01;;;;;;;2.72;0.85;;;;;;;;;;5052210;28;20045;-72
2023/08/13 04:29:27;;;;;;;1.52;0.80;;;;;;;;;;5051591;28;20033;-72
2023/08/13 04:31:54;;;;;;;1.35;0.60;;;;;;;;;;5051437;28;20068;-72
2023/08/13 04:34:20;;;;;;;1.95;0.80;;;;;;;;;;5051849;28;20025;-72
2023/08/13 04:36:46;;;;;;;1.60;0.63;;;;;;;;;;5051858;28;20033;-72
2023/08/13 04:39:13;;;;;;;2.13;0.70;;;;;;;;;;5051777;28;20033;-72
2023/08/13 04:41:40;;;;;;;2.40;0.70;;;23.50;72.10;;;;;;5051585;28;20033;-72
2023/08/13 04:44:06;;;;;;;1.60;0.47;;;;;;;;;;5051440;28;20052;-72
2023/08/13 04:46:32;;;;;;;2.08;0.60;;;;;;;;;;5054368;28;20036;-71
2023/08/13 04:48:58;;;;;;;1.85;0.77;;;;;;;;;;5055497;28;20079;-72
2023/08/13 04:51:24;;;;;;;1.45;0.70;;;;;;;;;;5055732;28;20076;-72
2023/08/13 04:53:50;;;;;;;1.90;0.47;;;;;;;;;;5055497;28;20103;-72
2023/08/13 04:56:17;;;;;;;2.15;0.75;;;;;;;;;;5056066;28;20395;-72
2023/08/13 04:58:43;;;;;;;1.42;0.70;;;;;;;;;;5055360;28;20033;-72
2023/08/13 05:01:09;;;;;;;2.03;0.50;;;;;;;;;;5055201;28;20083;-72
2023/08/13 05:03:35;;;;;;;2.97;0.85;;;;;;;;;;5055228;28;20040;-72
2023/08/13 05:06:01;;;;;;;3.17;0.70;;;;;;;;;;5055184;28;20376;-72
2023/08/13 05:08:27;;;;;;;3.08;0.98;;;;;;;;;;5055173;28;20395;-72
2023/08/13 05:10:53;;;;;;;2.75;0.73;;;;;;;;;;5055443;28;20491;-72
2023/08/13 05:13:19;;;;;;;2.55;0.80;;;;;;;;;;5054889;28;20103;-72
2023/08/13 05:15:46;;;;;;;1.55;0.77;;;;;;;;;;5055016;28;20518;-72
2023/08/13 05:18:12;;;;;;;0.75;0.57;;;;;;;;;;5055264;28;20033;-72
2023/08/13 05:20:39;;;;;;;2.00;0.50;;;;;;;;;;5055120;28;20043;-72
2023/08/13 05:23:05;;;;;;;4.00;0.90;;;;;;;;;;5055665;28;20033;-72
2023/08/13 05:25:36;;;;;;;1.05;0.60;;;;;;;;;;5054977;28;20037;-72
2023/08/13 05:28:02;;;;;;;1.45;0.75;;;;;;;;;;5055106;28;20037;-72
2023/08/13 05:30:28;;;;;;;2.00;0.70;;;;;;;;;;5054809;28;20053;-72
2023/08/13 05:32:54;;;;;;;2.40;0.65;;;;;;;;;;5050596;28;20543;-72
2023/08/13 05:35:21;;;;;;;2.45;0.60;;;;;;;;;;5054831;28;20048;-72
2023/08/13 05:37:47;;;;;;;3.13;0.80;;;;;;;;;;5054722;28;20392;-72
2023/08/13 05:40:13;;;;;;;3.97;1.15;;;;;;;;;;5054590;28;20529;-72
2023/08/13 05:42:39;;;;;;;1.38;0.47;;;;;;;;;;5054544;28;20056;-72
2023/08/13 05:45:06;;;;;;;2.08;0.60;;;;;;;;;;5054839;28;20056;-72
2023/08/13 05:47:32;;;;;;;3.17;0.73;;;;;;;;;;5054727;28;20151;-72
2023/08/13 05:49:59;;;;;;;1.63;0.70;;;;;;;;;;5054269;28;20140;-72
2023/08/13 05:52:25;;;;;;;2.97;0.80;;;;;;;;;;5054795;28;20514;-72
2023/08/13 05:54:52;;;;;;;2.50;0.60;;;;;;;;;;5054562;28;20033;-72
2023/08/13 05:57:18;;;;;;;1.35;0.70;;;;;;;;;;5053754;28;20395;-72
2023/08/13 05:59:45;;;;;;;1.63;0.85;;;;;;;;;;5054399;28;20029;-72
2023/08/13 06:02:11;;;;;;;2.53;0.77;;;;;;;;;;5054148;28;20496;-72
2023/08/13 06:04:37;;;;;;;1.85;0.73;;;;;;;;;;5054281;28;20055;-72
2023/08/13 06:07:04;;;;;;;3.33;0.95;;;;;;;;;;5053985;28;20041;-73
2023/08/13 06:09:30;;;;;;;2.53;0.75;;;23.30;69.00;;;;;;5054097;28;20065;-72
2023/08/13 06:11:56;;;;;;;3.85;0.93;;;;;;;;;;5053771;28;20084;-72
2023/08/13 06:14:22;;;;;;;1.85;0.63;;;;;;;;;;5053936;28;20064;-72
2023/08/13 06:16:48;;;;;;;1.60;0.52;;;;;;;;;;5053957;28;20048;-72
2023/08/13 06:19:14;;;;;;;1.10;0.38;;;;;;;;;;5053953;28;20032;-72
2023/08/13 06:21:40;;;;;;;2.08;0.70;;;;;;;;;;5054393;28;20041;-72
2023/08/13 06:24:07;;;;;;;3.33;0.73;;;;;;;;;;5054108;28;20056;-72
2023/08/13 06:26:33;;;;;;;1.58;0.70;;;;;;;;;;5053691;28;20033;-72
2023/08/13 06:29:00;;;;;;;1.73;0.70;;;;;;;;;;5053891;28;20048;-72
2023/08/13 06:31:26;;;;;;;1.40;0.57;;;;;;;;;;5053945;28;20041;-72
2023/08/13 06:33:53;;;;;;;2.50;0.85;;;;;;;;;;5053929;28;20033;-72
2023/08/13 06:36:19;;;;;;;2.83;0.77;;;;;;;;;;5053625;28;20571;-72
2023/08/13 06:38:46;;;;;;;1.50;0.75;;;;;;;;;;5053758;28;20036;-72
2023/08/13 06:41:12;;;;;;;3.60;0.70;;;;;;;;;;5053704;28;20040;-72
2023/08/13 06:43:39;;;;;;;1.52;0.70;;;;;;;;;;5053561;28;20381;-73
2023/08/13 06:46:05;;;;;;;3.55;0.73;;;;;;;;;;5053599;28;20036;-72
2023/08/13 06:48:33;;;;;;;1.52;0.70;;;23.50;73.20;;;;;;5053787;28;20112;-73
2023/08/13 06:50:59;;;;;;;2.85;0.68;;;;;;;;;;5053153;28;20048;-72
2023/08/13 06:53:26;;;;;;;2.30;0.70;;;;;;;;;;5053454;28;20033;-72
2023/08/13 06:55:53;;;;;;;1.38;0.55;;;;;;;;;;5053207;28;20476;-72
2023/08/13 06:58:19;;;;;;;1.40;0.50;;;;;;;;;;5053125;28;20037;-73
2023/08/13 07:00:46;;;;;;;3.10;0.70;;;;;;;;;;5053198;28;20044;-73
2023/08/13 07:03:12;;;;;;;1.65;0.80;;;;;;;;;;5053151;28;20037;-73
2023/08/13 07:05:40;;;;;;;2.10;0.82;;;23.30;73.40;;;;;;5053225;28;20099;-78
2023/08/13 07:08:06;;;;;;;3.15;0.70;;;;;;;;;;5052900;28;20021;-72
2023/08/13 07:10:33;;;;;;;3.38;0.65;;;;;;;;;;5052008;28;20044;-73
2023/08/13 07:13:00;;;;;;;1.73;0.60;;;;;;;;;;5052516;28;20049;-72
2023/08/13 07:15:26;;;;;;;2.10;0.68;;;;;;;;;;5052991;28;20064;-77
2023/08/13 07:17:53;;;;;;;3.05;0.90;;;;;;;;;;5053230;28;20041;-74
2023/08/13 07:20:19;;;;;;;2.53;0.63;;;;;;;;;;5052967;28;20033;-72
2023/08/13 07:22:47;;;;;;;3.72;0.60;;;23.30;71.30;;;;;;5052596;28;20037;-74
2023/08/13 07:25:13;;;;;;;1.95;0.65;;;;;;;;;;5052897;28;20063;-75
2023/08/13 07:27:42;;;;;;;3.42;0.60;;;23.20;73.60;;;;;;5052783;28;20104;-73
2023/08/13 07:30:10;;;;;;;2.63;0.80;;;23.30;73.80;;;;;;5052889;28;20086;-76
2023/08/13 07:32:37;;;;;;;1.98;0.70;;;;;;;;;;5052764;28;20033;-73
2023/08/13 07:35:06;;;;;;;1.85;0.70;;;;;;;;;;5052631;28;20045;-73
2023/08/13 07:37:36;;;;;;;4.07;0.80;;;23.30;73.80;;;;;;5052674;28;20033;-72
2023/08/13 07:40:12;;;;;;;2.17;0.70;;;23.30;73.90;;;;;;5052537;28;20025;-74
2023/08/13 07:42:39;;;;;;;1.88;0.70;;;;;;;;;;5052352;28;20045;-74
2023/08/13 07:45:11;;;;;;;2.20;0.73;;;23.30;71.50;;;;;;5052199;28;20116;-72
2023/08/13 07:47:38;;;;;;;2.28;0.60;;;;;;;;;;5052502;28;20213;-73
2023/08/13 07:50:05;;;;;;;3.78;0.63;;;23.40;71.20;;;;;;5052408;28;20033;-73
2023/08/13 07:52:34;;;;;;;1.48;0.73;;;;;;;;;;5052404;28;20455;-73
2023/08/13 07:55:00;;;;;;;1.58;0.60;;;;;;;;;;5052010;28;20495;-72
2023/08/13 07:57:27;;;;;;;3.65;0.70;;;;;;;;;;5052133;28;20111;-76
2023/08/13 07:59:54;;;;;;;1.33;0.65;;;;;;;;;;5052216;28;20043;-74
2023/08/13 08:02:20;;;;;;;2.35;0.60;;;;;;;;;;5052153;28;20395;-75
2023/08/13 08:04:47;;;;;;;1.63;0.65;;;;;;;;;;5052131;28;20395;-74
2023/08/13 08:07:13;;;;;;;2.67;0.68;;;;;;;;;;5051946;28;20086;-74
2023/08/13 08:09:40;;;;;;;2.40;0.75;;;;;;;;;;5051829;28;20041;-74
2023/08/13 08:12:06;;;;;;;3.45;0.75;;;;;;;;;;5051541;28;20048;-74
2023/08/13 08:14:33;;;;;;;3.60;1.08;;;;;;;;;;5052116;28;20041;-74
2023/08/13 08:17:05;;;;;;;2.50;0.70;;;;;;;;;;5051751;28;20044;-75
2023/08/13 08:19:32;;;;;;;2.28;0.77;;;23.50;72.30;;;;;;5051786;28;20041;-74
2023/08/13 08:21:58;;;;;;;2.40;0.85;;;;;;;;;;5051367;28;20033;-76
2023/08/13 08:24:25;;;;;;;3.15;0.93;;;23.50;72.90;;;;;;5052060;28;20033;-77
2023/08/13 08:26:52;;;;;;;3.38;0.88;;;;;;;;;;5051476;28;20484;-77
2023/08/13 08:29:18;;;;;;;3.42;0.73;;;;;;;;;;5051855;28;20129;-76
2023/08/13 08:31:45;;;;;;;3.50;0.80;;;;;;;;;;5051523;28;20040;-76
2023/08/13 08:34:11;;;;;;;2.28;0.80;;;;;;;;;;5051955;28;20083;-76
2023/08/13 08:36:38;;;;;;;5.45;0.70;;;;;;;;;;5051644;28;20036;-76
2023/08/13 08:39:04;;;;;;;1.63;0.90;;;;;;;;;;5051758;28;20104;-76
2023/08/13 08:41:33;;;;;;;2.60;0.80;;;23.50;74.80;;;;;;5051525;28;20061;-76
2023/08/13 08:43:59;;;;;;;1.83;0.80;;;;;;;;;;5051422;28;20164;-76
2023/08/13 08:46:27;;;;;;;2.85;0.82;;;23.50;74.70;;;;;;5051722;28;20068;-77
2023/08/13 08:48:54;;;;;;;2.17;1.20;;;;;;;;;;5051340;28;20063;-76
2023/08/13 08:51:23;;;;;;;2.50;0.70;;;23.50;69.00;;;;;;5051483;28;20048;-76
2023/08/13 08:53:50;;;;;;;3.63;1.10;;;23.50;72.30;;;;;;5051660;28;20052;-75
2023/08/13 08:56:17;;;;;;;2.97;0.85;;;;;;;;;;5051593;28;20638;-76
2023/08/13 08:58:44;;;;;;;2.67;0.90;;;;;;;;;;5051254;28;20040;-76
2023/08/13 09:01:10;;;;;;;1.58;0.93;;;;;;;;;;5051343;28;20044;-75
2023/08/13 09:03:37;;;;;;;2.72;0.90;;;;;;;;;;5051650;28;20419;-76
2023/08/13 09:06:03;;;;;;;4.30;1.02;;;;;;;;;;5051361;28;20037;-76
2023/08/13 09:08:30;;;;;;;1.75;0.63;;;23.50;75.00;;;;;;5051402;28;20129;-77
2023/08/13 09:10:57;;;;;;;1.88;0.68;;;;;;;;;;5051471;28;20442;-77
2023/08/13 09:13:24;;;;;;;3.00;0.70;;;;;;;;;;5051059;28;20057;-74
2023/08/13 09:15:53;;;;;;;2.38;0.80;;;23.60;75.50;;;;;;5050968;28;20077;-74
2023/08/13 09:18:19;;;;;;;2.78;0.82;;;;;;;;;;5051345;28;20388;-75
2023/08/13 09:20:47;;;;;;;3.00;0.85;;;23.60;75.90;;;;;;5051162;28;20108;-75
2023/08/13 09:23:23;;;;;;;4.72;1.08;;;23.60;70.20;;;;;;5049795;28;20090;-76
2023/08/13 09:25:55;;;;;;;4.50;1.20;;;23.60;76.50;;;;;;5051347;28;20040;-74
2023/08/13 09:28:21;;;;;;;4.18;1.40;;;;;;;;;;5051404;28;20060;-75
2023/08/13 09:30:48;;;;;;;2.10;0.80;;;;;;;;;;5051062;28;20049;-75
2023/08/13 09:33:16;;;;;;;4.38;0.90;;;23.60;76.10;;;;;;5053268;28;20036;-75
2023/08/13 09:35:43;;;;;;;3.03;0.70;;;23.70;73.20;;;;;;5054773;28;20040;-75
2023/08/13 09:38:09;;;;;;;3.05;0.70;;;;;;;;;;5054726;28;20033;-75
2023/08/13 09:40:35;;;;;;;3.78;1.08;;;;;;;;;;5054555;28;20507;-75
2023/08/13 09:43:09;;;;;;;3.55;1.00;;;23.70;76.30;;;;;;5054389;28;20162;-74
2023/08/13 09:45:36;;;;;;;2.03;0.60;;;;;;;;;;5054692;28;20032;-75
2023/08/13 09:48:05;;;;;;;2.97;0.88;;;23.70;75.30;;;;;;5054748;28;20543;-74
2023/08/13 09:50:39;;;;;;;3.40;1.05;;;23.70;68.40;;;;;;5054210;28;20048;-75
2023/08/13 09:53:11;;;;;;;4.68;0.90;;;23.80;73.80;;;;;;5054247;28;20049;-74
2023/08/13 09:55:41;;;;;;;3.20;1.05;;;23.80;74.80;;;;;;5054874;28;20029;-75
2023/08/13 09:58:11;;;;;;;2.30;0.65;;;23.80;76.00;;;;;;5054208;28;20039;-75
2023/08/13 10:00:37;;;;;;;2.85;0.70;;;;;;;;;;5054224;28;20047;-75
2023/08/13 10:03:03;;;;;;;4.95;0.90;;;;;;;;;;5054025;28;20120;-74
2023/08/13 10:05:29;;;;;;;2.72;1.00;;;;;;;;;;5054003;28;20079;-75
2023/08/13 10:07:57;;;;;;;2.00;0.70;;;23.90;76.00;;;;;;5053950;28;20044;-75
2023/08/13 10:10:24;;;;;;;1.55;0.85;;;24.00;75.40;;;;;;5053824;28;20095;-74
2023/08/13 10:12:51;;;;;;;3.08;0.88;;;;;;;;;;5053755;28;20446;-75
2023/08/13 10:15:17;;;;;;;1.98;0.82;;;;;;;;;;5054311;28;20492;-75
2023/08/13 10:17:44;;;;;;;2.72;0.80;;;24.10;76.00;;;;;;5053785;28;20047;-75
2023/08/13 10:20:10;;;;;;;2.05;0.65;;;;;;;;;;5054023;28;20041;-75
2023/08/13 10:22:39;;;;;;;3.20;0.90;;;24.10;76.00;;;;;;5053888;28;20391;-75
2023/08/13 10:25:07;;;;;;;1.52;0.50;;;24.10;72.80;;;;;;5053816;28;20040;-74
2023/08/13 10:27:36;;;;;;;1.02;0.63;;;24.20;70.10;;;;;;5053916;28;20021;-75
2023/08/13 10:30:09;;;;;;;1.30;0.73;;;24.20;70.00;;;;;;5053637;28;20037;-75
2023/08/13 10:33:03;;;;;;;1.55;0.57;;;24.20;70.10;;;;;;5053848;28;20162;-75
2023/08/13 10:35:34;;;;;;;1.35;0.52;;;24.20;76.10;;;;;;5047474;28;20078;-75
2023/08/13 10:38:02;;;;;;;3.13;0.93;;;24.30;75.70;;;;;;5053709;28;20029;-74
2023/08/13 10:40:28;;;;;;;2.20;1.00;;;;;;;;;;5053380;28;20037;-75
2023/08/13 10:42:55;;;;;;;2.92;0.77;;;24.30;72.80;;;;;;5053955;28;20120;-74
2023/08/13 10:45:32;;;;;;;2.53;0.88;;;24.40;75.30;;;;;;5053203;28;20475;-75
2023/08/13 10:48:00;;;;;;;0.93;0.52;;;24.50;75.40;;;;;;5053600;28;20369;-75
2023/08/13 10:50:31;;;;;;;3.78;0.77;;;24.60;75.10;;;;;;5053052;28;20056;-75
2023/08/13 10:53:19;;;;;;;2.40;0.55;;;24.70;69.40;;;;;;5053476;28;20117;-75
2023/08/13 10:55:51;;;;;;;4.32;0.88;;;24.70;75.20;;;;;;5053465;28;20026;-75
2023/08/13 10:58:37;;;;;;;3.50;0.98;;;24.70;69.60;;;;;;5045314;28;20033;-74
2023/08/13 11:01:10;;;;;;;1.33;0.60;;;;;;;;;;5053275;28;20392;-75
2023/08/13 11:03:44;;;;;;;1.45;0.80;;;24.70;75.50;;;;;;5053217;28;20379;-75
2023/08/13 11:06:11;;;;;;;2.13;0.77;;;24.80;72.70;;;;;;5053222;28;20025;-74
2023/08/13 11:08:40;;;;;;;1.83;0.60;;;24.80;74.90;;;;;;5052782;28;20037;-75
2023/08/13 11:11:09;;;;;;;1.88;0.80;;;24.40;69.60;;;;;;5053106;28;20048;-75
2023/08/13 11:13:36;;;;;;;1.25;0.60;;;;;;;;;;5052648;28;20483;-75
2023/08/13 11:16:02;;;;;;;1.63;0.63;;;;;;;;;;5052979;28;20037;-75
2023/08/13 11:18:29;;;;;;;2.40;0.82;;;;;;;;;;5052593;28;20037;-74
2023/08/13 11:20:55;;;;;;;2.28;0.73;;;;;;;;;;5052901;28;20029;-74
2023/08/13 11:23:22;;;;;;;3.03;0.85;;;24.90;75.20;;;;;;5052780;28;20067;-74
2023/08/13 11:25:49;;;;;;;2.78;0.85;;;;;;;;;;5052603;28;20123;-74
2023/08/13 11:28:23;;;;;;;2.83;0.70;;;24.80;70.00;;;;;;5051552;28;20434;-74
2023/08/13 11:30:52;;;;;;;2.55;0.68;;;24.90;76.30;;;;;;5052621;28;20041;-74
2023/08/13 11:33:19;;;;;;;1.83;0.57;;;;;;;;;;5052675;28;20044;-74
2023/08/13 11:35:46;;;;;;;1.80;0.60;;;24.90;73.70;;;;;;5052709;28;20099;-75
2023/08/13 11:38:12;;;;;;;2.42;0.77;;;;;;;;;;5052552;28;20040;-74
2023/08/13 11:40:39;;;;;;;2.63;0.80;;;;;;;;;;5052732;28;20036;-75
2023/08/13 11:43:09;;;;;;;2.90;0.70;;;24.80;75.80;;;;;;5052490;28;20037;-74
2023/08/13 11:45:35;;;;;;;;;;;24.80;75.30;;;;;;5052718;28;20039;-75
2023/08/13 11:48:10;;;;;;;5.22;1.42;;;24.90;70.60;;;;;;5052139;28;19964;-74
2023/08/13 11:50:37;;;;;;;2.55;0.82;;;24.80;74.60;;;;;;5052659;28;20388;-74
2023/08/13 11:53:12;;;;;;;2.30;0.65;;;24.80;69.60;;;;;;5052520;28;20025;-74
2023/08/13 11:55:40;;;;;;;1.40;0.52;;;24.80;75.60;;;;;;5051821;28;20040;-75
2023/08/13 11:58:06;;;;;;;3.08;0.85;;;;;;;;;;5052334;28;20032;-74
2023/08/13 12:00:34;;;;;;;1.52;0.88;;;;;;;;;;5052196;28;20403;-75
2023/08/13 12:03:00;;;;;;;2.38;1.00;;;;;;;;;;5051913;28;20516;-74
2023/08/13 12:05:31;;;;;;;2.25;0.60;;;24.80;71.30;;;;;;5051909;28;20040;-74
2023/08/13 12:08:05;;;;;;;2.08;0.82;;;24.80;77.50;;;;;;5052257;28;20029;-74
2023/08/13 12:10:32;;;;;;;3.47;0.70;;;25.10;77.60;;;;;;5052129;28;20067;-74
2023/08/13 12:12:59;;;;;;;1.15;0.50;;;;;;;;;;5051598;28;20059;-74
2023/08/13 12:15:26;;;;;;;2.65;0.90;;;24.80;74.50;;;;;;5052103;28;20272;-74
2023/08/13 12:17:53;;;;;;;2.15;0.90;;;24.80;77.50;;;;;;5051590;28;20095;-75
2023/08/13 12:20:20;;;;;;;1.63;0.88;;;;;;;;;;5051990;28;20079;-74
2023/08/13 12:22:46;;;;;;;1.50;0.70;;;;;;;;;;5051832;28;20036;-74
2023/08/13 12:25:12;;;;;;;2.40;0.68;;;;;;;;;;5051602;28;20120;-75
2023/08/13 12:27:38;;;;;;;2.80;0.88;;;;;;;;;;5051593;28;20107;-75
2023/08/13 12:30:05;;;;;;;2.15;0.73;;;;;;;;;;5051567;28;20498;-75
2023/08/13 12:32:31;;;;;;;2.20;0.85;;;;;;;;;;5051631;28;20045;-75
2023/08/13 12:34:58;;;;;;;1.77;0.90;;;;;;;;;;5051916;28;20401;-74
2023/08/13 12:37:25;;;;;;;2.00;0.68;;;24.90;76.50;;;;;;5052138;28;20565;-75
2023/08/13 12:39:52;;;;;;;1.77;0.65;;;;;;;;;;5051808;28;20049;-77
2023/08/13 12:42:19;;;;;;;2.55;0.80;;;;;;;;;;5051406;28;20125;-75
2023/08/13 12:44:46;;;;;;;1.55;0.70;;;;;;;;;;5051828;28;20462;-77
2023/08/13 12:47:12;;;;;;;1.65;0.60;;;;;;;;;;5049898;28;20121;-74
2023/08/13 12:49:39;;;;;;;2.78;0.93;;;;;;;;;;5051782;28;20151;-78
2023/08/13 12:52:05;;;;;;;2.03;0.82;;;;;;;;;;5051545;28;20385;-76
2023/08/13 12:54:31;;;;;;;2.88;0.98;;;;;;;;;;5051528;28;20112;-76
2023/08/13 12:56:57;;;;;;;4.43;0.93;;;;;;;;;;5051410;28;20506;-78
2023/08/13 12:59:23;;;;;;;2.88;0.93;;;;;;;;;;5051388;28;20487;-77
2023/08/13 13:01:49;;;;;;;4.70;1.20;;;;;;;;;;5051360;28;20415;-78
2023/08/13 13:04:16;;;;;;;1.75;0.75;;;;;;;;;;5043514;28;20040;-78
2023/08/13 13:06:43;;;;;;;1.42;0.52;;;;;;;;;;5053530;28;20041;-76
2023/08/13 13:09:09;;;;;;;3.15;1.13;;;;;;;;;;5054991;28;20040;-78
2023/08/13 13:11:37;;;;;;;2.15;1.02;;;;;;;;;;5054729;28;20511;-85
2023/08/13 13:14:03;;;;;;;4.30;0.90;;;;;;;;;;5055050;28;20045;-80
2023/08/13 13:16:30;;;;;;;3.30;1.13;;;;;;;;;;5055146;28;20041;-79
2023/08/13 13:18:56;;;;;;;3.92;1.05;;;;;;;;;;5054866;28;20029;-78
2023/08/13 13:21:23;;;;;;;3.03;0.90;;;;;;;;;;5055032;28;20124;-78
2023/08/13 13:23:49;;;;;;;5.50;1.00;;;;;;;;;;5054962;28;20090;-78
2023/08/13 13:26:15;;;;;;;4.03;1.23;;;;;;;;;;5054851;28;20040;-77
2023/08/13 13:28:42;;;;;;;2.53;0.80;;;;;;;;;;5055082;28;20470;-80
2023/08/13 13:31:08;;;;;;;1.90;0.95;;;;;;;;;;5054631;28;20041;-75
2023/08/13 13:33:34;;;;;;;2.53;0.75;;;;;;;;;;5054900;28;20037;-76
2023/08/13 13:36:01;;;;;;;2.22;0.85;;;;;;;;;;5054969;28;20041;-75
2023/08/13 13:38:28;;;;;;;3.47;0.73;;;;;;;;;;5054996;28;20078;-75
2023/08/13 13:40:54;;;;;;;4.55;0.77;;;;;;;;;;5054577;28;20033;-75
2023/08/13 13:43:21;;;;;;;0.82;0.50;;;;;;;;;;5055062;28;20060;-77
2023/08/13 13:45:47;;;;;;;2.47;0.60;;;;;;;;;;5054809;28;20041;-74
2023/08/13 13:48:14;;;;;;;1.48;0.90;;;;;;;;;;5054520;28;20045;-75
2023/08/13 13:50:40;;;;;;;2.33;0.80;;;;;;;;;;5054612;28;20045;-76
2023/08/13 13:53:07;;;;;;;2.28;0.60;;;;;;;;;;5055194;28;20450;-76
2023/08/13 13:55:33;;;;;;;2.05;0.40;;;;;;;;;;5054307;28;20083;-76
2023/08/13 13:58:00;;;;;;;1.80;0.60;;;;;;;;;;5054264;28;20041;-76
2023/08/13 14:00:27;;;;;;;1.90;0.50;;;;;;;;;;5054173;28;20113;-80
2023/08/13 14:02:54;;;;;;;1.77;0.60;;;;;;;;;;5054134;28;20086;-81
2023/08/13 14:05:20;;;;;;;1.88;0.65;;;;;;;;;;5054540;28;20385;-80
2023/08/13 14:07:46;;;;;;;1.95;0.60;;;;;;;;;;5054393;28;20060;-79
2023/08/13 14:10:13;;;;;;;1.52;0.55;;;;;;;;;;5053980;28;20476;-83
2023/08/13 14:12:39;;;;;;;1.50;0.60;;;;;;;;;;5053756;28;20124;-77